createdAt,value
2019-03-23T00:02:07.714Z,29.37
2019-03-23T00:04:38.016Z,26.33
2019-03-23T00:07:08.363Z,26.37
2019-03-23T00:09:38.994Z,27.50
2019-03-23T00:12:09.198Z,28.97
2019-03-23T00:14:39.468Z,27.63
2019-03-23T00:17:11.073Z,27.40
2019-03-23T00:19:41.354Z,26.87
2019-03-23T00:22:11.656Z,27.60
2019-03-23T00:24:42.010Z,27.53
2019-03-23T00:27:12.274Z,27.90
2019-03-23T00:29:42.707Z,28.40
2019-03-23T00:32:12.958Z,26.33
2019-03-23T00:34:43.256Z,28.43
2019-03-23T00:37:13.486Z,26.30
2019-03-23T00:39:43.712Z,24.67
2019-03-23T00:42:14.036Z,24.57
2019-03-23T00:44:44.364Z,26.03
2019-03-23T00:47:14.654Z,25.93
2019-03-23T00:49:44.915Z,28.10
2019-03-23T00:52:15.162Z,27.13
2019-03-23T00:54:45.425Z,27.70
2019-03-23T00:57:15.696Z,28.13
2019-03-23T00:59:46.005Z,28.13
2019-03-23T01:02:16.282Z,30.10
2019-03-23T01:04:46.524Z,27.90
2019-03-23T01:07:16.782Z,27.97
2019-03-23T01:09:46.995Z,27.83
2019-03-23T01:12:17.413Z,27.63
2019-03-23T01:14:47.655Z,25.40
2019-03-23T01:17:17.850Z,27.27
2019-03-23T01:19:48.193Z,26.93
2019-03-23T01:22:18.385Z,27.30
2019-03-23T01:24:48.625Z,30.00
2019-03-23T01:27:18.852Z,27.00
2019-03-23T01:29:49.170Z,28.17
2019-03-23T01:32:19.418Z,27.03
2019-03-23T01:34:49.810Z,27.93
2019-03-23T01:37:20.022Z,26.73
2019-03-23T01:39:50.282Z,26.37
2019-03-23T01:42:20.694Z,27.77
2019-03-23T01:44:50.937Z,27.03
2019-03-23T01:47:21.646Z,27.70
2019-03-23T01:49:51.915Z,25.57
2019-03-23T01:52:22.127Z,27.83
2019-03-23T01:54:52.660Z,28.20
2019-03-23T01:57:22.959Z,26.93
2019-03-23T01:59:53.448Z,25.90
2019-03-23T02:02:23.667Z,28.87
2019-03-23T02:04:53.999Z,26.47
2019-03-23T02:07:24.192Z,25.20
2019-03-23T02:09:54.443Z,25.30
2019-03-23T02:12:24.763Z,25.47
2019-03-23T02:14:55.097Z,25.20
2019-03-23T02:17:25.434Z,26.50
2019-03-23T02:19:57.647Z,27.13
2019-03-23T02:22:27.690Z,23.80
2019-03-23T02:25:10.923Z,25.50
2019-03-23T02:27:41.181Z,25.23
2019-03-23T02:30:12.670Z,23.37
2019-03-23T02:32:43.002Z,24.77
2019-03-23T02:35:13.602Z,23.40
2019-03-23T02:37:43.842Z,26.07
2019-03-23T02:40:14.154Z,25.43
2019-03-23T02:42:44.469Z,26.87
2019-03-23T02:45:15.574Z,26.00
2019-03-23T02:47:45.879Z,24.57
2019-03-23T02:50:16.284Z,26.90
2019-03-23T02:52:46.533Z,24.17
2019-03-23T02:55:16.791Z,26.20
2019-03-23T02:57:48.071Z,25.20
2019-03-23T03:00:18.753Z,25.17
2019-03-23T03:02:49.001Z,26.87
2019-03-23T03:05:19.400Z,25.90
2019-03-23T03:07:49.713Z,25.43
2019-03-23T03:10:38.000Z,27.70
2019-03-23T03:13:08.384Z,26.10
2019-03-23T03:15:38.652Z,26.23
2019-03-23T03:18:09.355Z,25.83
2019-03-23T03:20:39.603Z,29.17
2019-03-23T03:23:10.021Z,27.10
2019-03-23T03:25:40.344Z,26.47
2019-03-23T03:28:10.608Z,26.23
2019-03-23T03:30:40.923Z,28.43
2019-03-23T03:33:11.156Z,25.50
2019-03-23T03:35:41.442Z,28.00
2019-03-23T03:38:11.691Z,28.23
2019-03-23T03:40:41.910Z,26.70
2019-03-23T03:43:13.279Z,28.83
2019-03-23T03:45:43.580Z,25.37
2019-03-23T03:48:13.905Z,28.47
2019-03-23T03:50:44.144Z,26.90
2019-03-23T03:53:14.470Z,26.57
2019-03-23T03:55:44.754Z,26.40
2019-03-23T03:58:16.033Z,29.33
2019-03-23T04:00:46.334Z,30.00
2019-03-23T04:03:16.586Z,28.40
2019-03-23T04:05:46.770Z,27.73
2019-03-23T04:08:17.012Z,26.73
2019-03-23T04:10:47.453Z,27.40
2019-03-23T04:13:17.688Z,27.07
2019-03-23T04:15:47.894Z,26.73
2019-03-23T04:18:18.145Z,28.67
2019-03-23T04:20:48.374Z,27.50
2019-03-23T04:23:18.680Z,28.80
2019-03-23T04:25:50.023Z,28.60
2019-03-23T04:28:20.368Z,25.87
2019-03-23T04:30:50.621Z,28.43
2019-03-23T04:33:20.985Z,26.87
2019-03-23T04:35:51.259Z,27.23
2019-03-23T04:38:22.886Z,28.57
2019-03-23T04:40:53.585Z,27.70
2019-03-23T04:43:23.917Z,25.70
2019-03-23T04:45:54.222Z,28.37
2019-03-23T04:48:24.454Z,28.10
2019-03-23T04:50:54.696Z,27.47
2019-03-23T04:53:24.991Z,28.13
2019-03-23T04:55:55.301Z,27.00
2019-03-23T04:58:25.563Z,26.00
2019-03-23T05:00:55.792Z,26.27
2019-03-23T05:03:26.026Z,27.00
2019-03-23T05:05:56.232Z,25.30
2019-03-23T05:08:33.346Z,25.90
2019-03-23T05:10:58.411Z,26.83
2019-03-23T05:13:29.599Z,26.17
2019-03-23T05:15:59.858Z,25.80
2019-03-23T05:18:30.102Z,27.00
2019-03-23T05:21:00.418Z,24.70
2019-03-23T05:23:30.731Z,25.93
2019-03-23T05:26:00.999Z,24.40
2019-03-23T05:28:31.251Z,24.73
2019-03-23T05:31:01.545Z,24.13
2019-03-23T05:33:31.817Z,23.10
2019-03-23T05:36:02.051Z,24.40
2019-03-23T05:38:32.229Z,24.47
2019-03-23T05:41:02.530Z,24.20
2019-03-23T05:43:32.727Z,24.33
2019-03-23T05:46:03.113Z,25.17
2019-03-23T05:48:33.287Z,22.57
2019-03-23T05:51:03.611Z,23.60
2019-03-23T05:53:33.833Z,26.03
2019-03-23T05:56:04.154Z,25.67
2019-03-23T05:58:34.363Z,24.97
2019-03-23T06:01:04.777Z,22.53
2019-03-23T06:03:34.994Z,23.37
2019-03-23T06:06:05.520Z,22.37
2019-03-23T06:08:35.781Z,22.00
2019-03-23T06:11:06.340Z,24.13
2019-03-23T06:13:36.559Z,22.80
2019-03-23T06:16:06.820Z,22.90
2019-03-23T06:18:37.027Z,23.00
2019-03-23T06:21:07.388Z,22.27
2019-03-23T06:23:37.587Z,24.70
2019-03-23T06:26:09.280Z,21.83
2019-03-23T06:28:40.634Z,24.83
2019-03-23T06:31:10.857Z,21.60
2019-03-23T06:33:41.081Z,22.10
2019-03-23T06:36:11.368Z,22.80
2019-03-23T06:38:41.595Z,23.40
2019-03-23T06:41:11.815Z,24.13
2019-03-23T06:43:42.098Z,25.03
2019-03-23T06:46:12.348Z,23.80
2019-03-23T06:48:42.562Z,23.60
2019-03-23T06:51:12.792Z,22.40
2019-03-23T06:53:43.019Z,24.60
2019-03-23T06:56:13.247Z,22.80
2019-03-23T06:58:43.467Z,24.17
2019-03-23T07:01:13.728Z,23.50
2019-03-23T07:03:44.173Z,21.63
2019-03-23T07:06:14.440Z,22.77
2019-03-23T07:08:44.851Z,23.07
2019-03-23T07:11:15.102Z,22.73
2019-03-23T07:13:45.714Z,22.60
2019-03-23T07:16:15.964Z,23.53
2019-03-23T07:18:46.197Z,21.47
2019-03-23T07:21:18.180Z,22.80
2019-03-23T07:23:48.700Z,22.53
2019-03-23T07:26:18.946Z,24.30
2019-03-23T07:28:49.198Z,21.00
2019-03-23T07:31:19.475Z,21.33
2019-03-23T07:33:49.717Z,22.73
2019-03-23T07:36:19.971Z,21.43
2019-03-23T07:38:50.295Z,23.53
2019-03-23T07:41:20.684Z,21.47
2019-03-23T07:43:50.975Z,23.83
2019-03-23T07:46:21.238Z,22.93
2019-03-23T07:48:51.536Z,23.07
2019-03-23T07:51:21.859Z,23.23
2019-03-23T07:53:52.077Z,22.47
2019-03-23T07:56:22.360Z,24.27
2019-03-23T07:58:52.574Z,23.13
2019-03-23T08:01:22.804Z,23.80
2019-03-23T08:03:53.070Z,26.63
2019-03-23T08:06:23.364Z,25.23
2019-03-23T08:08:53.675Z,25.57
2019-03-23T08:11:24.110Z,24.10
2019-03-23T08:13:54.413Z,23.20
2019-03-23T08:16:24.725Z,24.10
2019-03-23T08:18:55.212Z,25.27
2019-03-23T08:21:26.655Z,27.70
2019-03-23T08:23:56.904Z,26.10
2019-03-23T08:26:27.337Z,27.37
2019-03-23T08:28:57.687Z,26.63
2019-03-23T08:31:27.924Z,25.97
2019-03-23T08:33:58.243Z,25.43
2019-03-23T08:36:28.517Z,26.53
2019-03-23T08:38:58.776Z,25.50
2019-03-23T08:41:29.048Z,25.80
2019-03-23T08:43:59.335Z,26.03
2019-03-23T08:46:29.638Z,24.83
2019-03-23T08:48:59.896Z,25.00
2019-03-23T08:51:30.140Z,24.37
2019-03-23T08:54:00.478Z,26.60
2019-03-23T08:56:30.771Z,26.17
2019-03-23T08:59:01.058Z,27.77
2019-03-23T09:01:31.357Z,26.60
2019-03-23T09:04:01.669Z,26.83
2019-03-23T09:06:31.863Z,26.50
2019-03-23T09:09:02.195Z,28.30
2019-03-23T09:11:33.391Z,26.87
2019-03-23T09:14:03.686Z,25.27
2019-03-23T09:16:34.018Z,26.20
2019-03-23T09:19:04.474Z,24.60
2019-03-23T09:21:34.788Z,26.10
2019-03-23T09:24:05.099Z,25.80
2019-03-23T09:26:35.348Z,25.57
2019-03-23T09:29:06.798Z,25.90
2019-03-23T09:31:37.120Z,25.60
2019-03-23T09:34:07.499Z,23.87
2019-03-23T09:36:37.711Z,25.77
2019-03-23T09:39:08.669Z,24.30
2019-03-23T09:41:38.955Z,24.33
2019-03-23T09:44:09.282Z,24.30
2019-03-23T09:46:39.550Z,26.37
2019-03-23T09:49:09.828Z,24.80
2019-03-23T09:51:40.052Z,23.07
2019-03-23T09:54:10.343Z,24.83
2019-03-23T09:56:40.598Z,25.27
2019-03-23T09:59:10.827Z,23.77
2019-03-23T10:01:41.079Z,26.10
2019-03-23T10:04:11.331Z,24.23
2019-03-23T10:06:41.594Z,24.70
2019-03-23T10:09:11.836Z,25.13
2019-03-23T10:11:42.133Z,26.77
2019-03-23T10:14:12.506Z,22.80
2019-03-23T10:16:43.766Z,22.40
2019-03-23T10:19:15.854Z,24.07
2019-03-23T10:21:46.054Z,24.23
2019-03-23T10:24:16.462Z,24.77
2019-03-23T10:26:46.715Z,25.00
2019-03-23T10:29:17.045Z,25.80
2019-03-23T10:31:47.368Z,26.30
2019-03-23T10:34:17.600Z,26.60
2019-03-23T10:36:47.828Z,25.53
2019-03-23T10:39:18.140Z,25.93
2019-03-23T10:41:48.440Z,25.27
2019-03-23T10:44:18.780Z,25.17
2019-03-23T10:46:50.078Z,23.87
2019-03-23T10:49:20.386Z,25.50
2019-03-23T10:51:53.066Z,23.17
2019-03-23T10:54:23.369Z,23.40
2019-03-23T10:56:53.658Z,25.00
2019-03-23T10:59:24.189Z,24.90
2019-03-23T11:01:54.586Z,25.77
2019-03-23T11:04:24.946Z,24.97
2019-03-23T11:06:55.208Z,25.67
2019-03-23T11:09:25.550Z,26.67
2019-03-23T11:11:55.928Z,24.17
2019-03-23T11:14:26.202Z,25.20
2019-03-23T11:16:56.502Z,27.93
2019-03-23T11:19:26.827Z,28.23
2019-03-23T11:21:57.277Z,25.23
2019-03-23T11:24:27.553Z,27.47
2019-03-23T11:26:57.867Z,27.83
2019-03-23T11:29:28.184Z,27.80
2019-03-23T11:31:58.425Z,30.60
2019-03-23T11:34:28.714Z,30.13
2019-03-23T11:36:58.918Z,29.87
2019-03-23T11:39:29.170Z,28.73
2019-03-23T11:41:59.413Z,31.67
2019-03-23T11:44:29.680Z,30.33
2019-03-23T11:47:01.066Z,30.20
2019-03-23T11:49:31.431Z,28.87
2019-03-23T11:52:01.647Z,29.00
2019-03-23T11:54:32.038Z,32.47
2019-03-23T11:57:02.607Z,29.37
2019-03-23T11:59:32.957Z,30.37
2019-03-23T12:02:03.218Z,33.30
2019-03-23T12:04:33.521Z,28.30
2019-03-23T12:07:03.776Z,31.10
2019-03-23T12:09:34.056Z,29.67
2019-03-23T12:12:04.453Z,28.93
2019-03-23T12:14:35.077Z,30.60
2019-03-23T12:17:05.550Z,31.13
2019-03-23T12:19:35.762Z,32.73
2019-03-23T12:22:06.054Z,30.90
2019-03-23T12:24:36.302Z,30.00
2019-03-23T12:27:07.248Z,28.83
2019-03-23T12:29:37.498Z,30.03
2019-03-23T12:32:07.823Z,29.60
2019-03-23T12:34:38.262Z,25.43
2019-03-23T12:37:08.520Z,29.03
2019-03-23T12:39:38.833Z,28.43
2019-03-23T12:42:09.059Z,28.87
2019-03-23T12:44:39.388Z,27.00
2019-03-23T12:47:09.656Z,31.03
2019-03-23T12:49:40.956Z,28.77
2019-03-23T12:52:11.291Z,27.87
2019-03-23T12:54:41.531Z,28.77
2019-03-23T12:57:11.773Z,30.97
2019-03-23T12:59:42.805Z,31.97
2019-03-23T13:02:13.089Z,30.17
2019-03-23T13:04:43.380Z,31.80
2019-03-23T13:07:13.646Z,30.50
2019-03-23T13:09:43.925Z,31.87
2019-03-23T13:12:14.123Z,30.47
2019-03-23T13:14:44.527Z,29.37
2019-03-23T13:17:14.799Z,28.80
2019-03-23T13:19:45.141Z,32.30
2019-03-23T13:22:15.379Z,28.67
2019-03-23T13:24:45.721Z,28.83
2019-03-23T13:27:16.034Z,28.37
2019-03-23T13:29:47.328Z,32.40
2019-03-23T13:32:17.797Z,26.40
2019-03-23T13:34:49.142Z,26.40
2019-03-23T13:37:19.447Z,26.40
2019-03-23T13:39:49.763Z,27.60
2019-03-23T13:42:20.004Z,27.43
2019-03-23T13:44:50.279Z,27.60
2019-03-23T13:47:20.562Z,28.87
2019-03-23T13:49:50.852Z,21.97
2019-03-23T13:52:21.107Z,25.00
2019-03-23T13:54:51.438Z,25.50
2019-03-23T13:57:21.651Z,24.50
2019-03-23T13:59:51.997Z,25.63
2019-03-23T14:02:22.289Z,25.73
2019-03-23T14:04:52.545Z,23.50
2019-03-23T14:07:22.830Z,25.50
2019-03-23T14:09:53.123Z,23.90
2019-03-23T14:12:23.445Z,22.90
2019-03-23T14:14:53.747Z,22.27
2019-03-23T14:17:24.039Z,21.23
2019-03-23T14:19:54.265Z,21.03
2019-03-23T14:22:24.487Z,21.87
2019-03-23T14:24:54.721Z,22.33
2019-03-23T14:27:24.959Z,19.33
2019-03-23T14:29:55.217Z,19.10
2019-03-23T14:32:25.547Z,20.00
2019-03-23T14:34:55.833Z,18.53
2019-03-23T14:37:26.125Z,18.87
2019-03-23T14:39:56.457Z,18.17
2019-03-23T14:42:26.721Z,19.60
2019-03-23T14:44:56.961Z,21.97
2019-03-23T14:47:27.226Z,20.37
2019-03-23T14:49:57.683Z,18.60
2019-03-23T14:52:27.951Z,19.23
2019-03-23T14:54:58.193Z,20.93
2019-03-23T14:57:28.453Z,20.17
2019-03-23T14:59:58.711Z,20.23
2019-03-23T15:02:29.938Z,19.73
2019-03-23T15:05:00.303Z,19.57
2019-03-23T15:07:30.685Z,19.63
2019-03-23T15:10:00.991Z,19.80
2019-03-23T15:12:31.211Z,18.43
2019-03-23T15:15:01.517Z,19.60
2019-03-23T15:17:31.935Z,18.87
2019-03-23T15:20:02.270Z,19.87
2019-03-23T15:22:32.583Z,19.47
2019-03-23T15:25:02.828Z,19.80
2019-03-23T15:27:33.278Z,20.10
2019-03-23T15:30:03.831Z,20.93
2019-03-23T15:32:34.343Z,19.57
2019-03-23T15:35:05.041Z,18.67
2019-03-23T15:37:35.361Z,17.50
2019-03-23T15:40:05.948Z,19.60
2019-03-23T15:42:36.276Z,23.03
2019-03-23T15:45:07.913Z,23.17
2019-03-23T15:47:38.275Z,18.63
2019-03-23T15:50:09.513Z,15.70
2019-03-23T15:52:39.735Z,15.47
2019-03-23T15:55:10.789Z,18.10
2019-03-23T15:57:41.179Z,16.57
2019-03-23T16:00:13.160Z,15.80
2019-03-23T16:02:43.443Z,15.60
2019-03-23T16:05:13.985Z,15.30
2019-03-23T16:07:44.307Z,14.93
2019-03-23T16:10:15.767Z,14.30
2019-03-23T16:12:46.307Z,15.70
2019-03-23T16:15:16.783Z,15.80
2019-03-23T16:17:47.132Z,17.03
2019-03-23T16:20:18.435Z,15.80
2019-03-23T16:22:48.741Z,15.00
2019-03-23T16:25:19.143Z,15.93
2019-03-23T16:27:49.539Z,16.90
2019-03-23T16:30:31.591Z,16.37
2019-03-23T16:33:01.823Z,15.90
2019-03-23T16:35:32.206Z,15.17
2019-03-23T16:38:02.609Z,15.97
2019-03-23T16:40:32.965Z,14.20
2019-03-23T16:43:03.207Z,14.50
2019-03-23T16:45:34.641Z,14.07
2019-03-23T16:48:05.016Z,13.60
2019-03-23T16:50:35.325Z,12.43
2019-03-23T16:53:05.831Z,12.80
2019-03-23T16:55:36.154Z,12.90
2019-03-23T16:58:15.544Z,11.83
2019-03-23T17:00:39.095Z,11.77
2019-03-23T17:03:09.315Z,12.27
2019-03-23T17:05:39.645Z,11.40
2019-03-23T17:08:09.911Z,10.30
2019-03-23T17:10:40.259Z,10.70
2019-03-23T17:13:10.656Z,11.00
2019-03-23T17:15:41.002Z,9.73
2019-03-23T17:18:11.370Z,9.50
2019-03-23T17:20:43.535Z,10.60
2019-03-23T17:23:13.543Z,9.87
2019-03-23T17:25:44.027Z,8.40
2019-03-23T17:28:14.267Z,9.30
2019-03-23T17:30:44.686Z,10.20
2019-03-23T17:33:14.949Z,8.80
2019-03-23T17:35:45.476Z,10.80
2019-03-23T17:38:15.802Z,10.80
2019-03-23T17:40:46.109Z,9.87
2019-03-23T17:43:16.452Z,10.93
2019-03-23T17:45:47.797Z,10.50
2019-03-23T17:48:19.408Z,10.53
2019-03-23T17:50:49.746Z,9.77
2019-03-23T17:53:20.073Z,10.63
2019-03-23T17:55:50.685Z,10.80
2019-03-23T17:58:22.130Z,11.00
2019-03-23T18:00:52.461Z,10.43
2019-03-23T18:03:22.803Z,11.00
2019-03-23T18:05:53.151Z,10.30
2019-03-23T18:08:25.440Z,9.10
2019-03-23T18:10:55.694Z,10.53
2019-03-23T18:13:26.073Z,8.20
2019-03-23T18:15:56.328Z,7.57
2019-03-23T18:18:26.536Z,8.03
2019-03-23T18:20:56.854Z,9.47
2019-03-23T18:23:27.095Z,8.20
2019-03-23T18:25:57.541Z,9.23
2019-03-23T18:28:27.806Z,8.70
2019-03-23T18:30:58.055Z,8.13
2019-03-23T18:33:28.405Z,9.20
2019-03-23T18:35:58.633Z,9.67
2019-03-23T18:38:28.921Z,9.30
2019-03-23T18:40:59.210Z,10.70
2019-03-23T18:43:29.580Z,8.20
2019-03-23T18:45:59.951Z,9.37
2019-03-23T18:48:30.265Z,12.00
2019-03-23T18:51:00.645Z,9.97
2019-03-23T18:53:30.994Z,11.57
2019-03-23T18:56:01.340Z,11.80
2019-03-23T18:58:31.723Z,11.80
2019-03-23T19:01:02.167Z,12.57
2019-03-23T19:03:32.498Z,13.70
2019-03-23T19:06:02.940Z,12.40
2019-03-23T19:08:33.266Z,12.43
2019-03-23T19:11:03.554Z,14.20
2019-03-23T19:13:37.714Z,13.00
2019-03-23T19:16:06.169Z,13.27
2019-03-23T19:18:36.490Z,12.60
2019-03-23T19:21:06.889Z,16.20
2019-03-23T19:23:37.279Z,15.53
2019-03-23T19:26:07.597Z,14.70
2019-03-23T19:28:37.853Z,15.43
2019-03-23T19:31:08.096Z,15.00
2019-03-23T19:33:38.435Z,16.57
2019-03-23T19:36:08.740Z,15.70
2019-03-23T19:38:39.102Z,15.90
2019-03-23T19:41:09.346Z,17.30
2019-03-23T19:43:48.268Z,16.43
2019-03-23T19:46:11.568Z,15.20
2019-03-23T19:48:41.881Z,17.20
2019-03-23T19:51:12.162Z,16.97
2019-03-23T19:53:42.415Z,17.83
2019-03-23T19:56:12.646Z,17.27
2019-03-23T19:58:42.987Z,18.07
2019-03-23T20:01:13.285Z,17.77
2019-03-23T20:03:43.639Z,18.03
2019-03-23T20:06:13.887Z,18.33
2019-03-23T20:08:44.196Z,18.00
2019-03-23T20:11:14.590Z,18.53
2019-03-23T20:13:45.106Z,19.53
2019-03-23T20:16:15.409Z,18.40
2019-03-23T20:18:45.812Z,18.90
2019-03-23T20:21:16.165Z,21.20
2019-03-23T20:23:46.493Z,17.73
2019-03-23T20:26:16.768Z,20.60
2019-03-23T20:28:47.162Z,17.70
2019-03-23T20:31:17.451Z,20.83
2019-03-23T20:33:47.748Z,19.73
2019-03-23T20:36:18.222Z,19.13
2019-03-23T20:38:48.531Z,17.53
2019-03-23T20:41:18.916Z,15.67
2019-03-23T20:43:53.115Z,15.77
2019-03-23T20:46:24.312Z,14.50
2019-03-23T20:48:55.130Z,15.90
2019-03-23T20:51:25.431Z,13.30
2019-03-23T20:53:55.830Z,14.30
2019-03-23T20:56:26.070Z,14.30
2019-03-23T20:58:56.304Z,13.57
2019-03-23T21:01:26.636Z,14.27
2019-03-23T21:03:56.938Z,14.47
2019-03-23T21:06:27.579Z,13.77
2019-03-23T21:08:58.189Z,14.70
2019-03-23T21:11:28.538Z,13.50
2019-03-23T21:13:58.866Z,14.50
2019-03-23T21:16:29.185Z,14.87
2019-03-23T21:18:59.840Z,13.50
2019-03-23T21:21:30.192Z,15.17
2019-03-23T21:24:00.482Z,13.93
2019-03-23T21:26:30.905Z,14.80
2019-03-23T21:29:01.232Z,14.50
2019-03-23T21:31:31.552Z,14.40
2019-03-23T21:34:02.756Z,15.37
2019-03-23T21:36:33.006Z,13.70
2019-03-23T21:39:04.176Z,15.70
2019-03-23T21:41:35.594Z,14.20
2019-03-23T21:44:05.815Z,14.17
2019-03-23T21:46:36.075Z,14.83
2019-03-23T21:49:06.302Z,15.10
2019-03-23T21:51:36.526Z,14.97
2019-03-23T21:54:07.744Z,13.30
2019-03-23T21:56:37.952Z,15.57
2019-03-23T21:59:08.164Z,15.00
2019-03-23T22:01:38.424Z,16.23
2019-03-23T22:04:08.643Z,15.17
2019-03-23T22:06:39.965Z,14.03
2019-03-23T22:09:10.217Z,17.13
2019-03-23T22:11:40.680Z,16.60
2019-03-23T22:14:10.984Z,16.53
2019-03-23T22:16:41.299Z,16.87
2019-03-23T22:19:11.603Z,17.93
2019-03-23T22:21:41.940Z,16.70
2019-03-23T22:24:12.234Z,17.00
2019-03-23T22:26:42.606Z,19.20
2019-03-23T22:29:12.964Z,16.37
2019-03-23T22:31:43.278Z,17.17
2019-03-23T22:34:13.604Z,17.00
2019-03-23T22:36:43.852Z,15.63
2019-03-23T22:39:14.123Z,15.07
2019-03-23T22:41:44.330Z,19.30
2019-03-23T22:44:14.995Z,17.50
2019-03-23T22:46:45.198Z,18.30
2019-03-23T22:49:15.440Z,17.57
2019-03-23T22:51:45.874Z,16.67
2019-03-23T22:54:16.141Z,17.13
2019-03-23T22:56:46.458Z,18.17
2019-03-23T22:59:17.868Z,17.77
2019-03-23T23:01:48.199Z,17.27
2019-03-23T23:04:18.527Z,20.10
2019-03-23T23:06:51.338Z,17.33
2019-03-23T23:09:21.653Z,17.73
2019-03-23T23:11:51.980Z,19.60
2019-03-23T23:14:22.229Z,16.80
2019-03-23T23:16:52.557Z,16.60
2019-03-23T23:19:25.142Z,17.20
2019-03-23T23:21:58.533Z,18.77
2019-03-23T23:24:30.019Z,18.03
2019-03-23T23:27:00.313Z,16.83
2019-03-23T23:29:30.581Z,17.87
2019-03-23T23:32:00.863Z,18.80
2019-03-23T23:34:31.187Z,16.50
2019-03-23T23:37:01.622Z,18.30
2019-03-23T23:39:31.955Z,16.67
2019-03-23T23:42:02.234Z,18.40
2019-03-23T23:44:32.491Z,17.13
2019-03-23T23:47:02.782Z,18.90
2019-03-23T23:49:33.020Z,19.67
2019-03-23T23:52:03.314Z,18.03
2019-03-23T23:54:33.545Z,18.17
2019-03-23T23:57:03.831Z,18.90
2019-03-23T23:59:34.069Z,17.37
